CheckWX is a tool to help pilots better visualize weather data.  It is not intended as a substitute for an official pre-flight weather briefing.

20:54:03 UTC

KHLB METAR
Batesville Airport
Batesville, Indiana, USA
Current

19 mins ago

KHLB 232035Z AUTO VRB06G12KT 10SM OVC037 22/14 A2996 RMK A01
Observed
Apr-23 @ 20:35 UTC
Wind
  • Variable at 6 KTS
  • Gusting to 12 KTS
Visibility
10 SM
Flight Rules
VFR
Cloud Levels
  • Overcast at 3,700' AGL
Temperature
22°C / 72°F
Dewpoint
14°C / 57°F
Humidity
61%
Altimeter
29.96" Hg
Pressure
1014.52 hPa
Previous

39 mins ago

KHLB 232015Z AUTO 31008G15KT 260V350 10SM BKN037 OVC043 22/14 A2996 RMK A01
Observed
Apr-23 @ 20:15 UTC
Wind
  • 310° at 8 KTS
  • Gusting to 15 KTS
Visibility
10 SM
Flight Rules
VFR
Cloud Levels
  • Broken at 3,700' AGL
  • Overcast at 4,300' AGL
Temperature
22°C / 72°F
Dewpoint
14°C / 57°F
Humidity
61%
Altimeter
29.96" Hg
Pressure
1014.52 hPa
Previous

59 mins ago

KHLB 231955Z AUTO 28008G15KT 250V310 10SM SCT035 BKN040 BKN055 22/14 A2996 RMK A01
Observed
Apr-23 @ 19:55 UTC
Wind
  • 280° at 8 KTS
  • Gusting to 15 KTS
Visibility
10 SM
Flight Rules
VFR
Cloud Levels
  • Scattered at 3,500' AGL
  • Broken at 4,000' AGL
  • Broken at 5,500' AGL
Temperature
22°C / 72°F
Dewpoint
14°C / 57°F
Humidity
61%
Altimeter
29.96" Hg
Pressure
1014.52 hPa